SAVANNAH PORTABLE SC US current weather conditions

sailwx.info

Wind from 341 at 2 knots gusting 5

Air temperature 19.4° C
Dewpoint 15.1° C

Last reported at 2020-Apr-07 02:23 UTC.
Time now 2020-Apr-07 03:25 UTC

Location: N 32°40' W 080°43'.
View on Google Maps.

See reports from other nearby stations

  
Tides and Currents Weather Stations Pressure Air Temp Water Temp Dewpoint Dewpoint Depression Visibility Wind Speed Wind Dir Waves Ship Positions
date/time (UTC)wind fromknots sea level pressurealtimeterstation pressurevisibilityair tempwater tempwave heightnotes
2020-Apr-07 02:23 341 2 gusting 5 19.4
2020-Apr-07 01:23 015 0 gusting 3 19.4
2020-Apr-07 00:23 039 1 gusting 3 20.6
2020-Apr-06 23:23 008 2 gusting 6 22.8
2020-Apr-06 22:23 048 2 gusting 7 25.6
2020-Apr-06 21:23 063 2 gusting 8 27.2
2020-Apr-06 20:23 245 2 gusting 8 27.8
2020-Apr-06 19:23 299 2 gusting 8 28.3
2020-Apr-06 18:23 294 4 gusting 10 27.8
2020-Apr-06 17:23 265 2 gusting 7 27.2
2020-Apr-06 16:23 287 3 gusting 9 26.1
2020-Apr-06 15:23 299 4 gusting 7 24.4
2020-Apr-06 14:23 277 1 gusting 5 22.8
2020-Apr-06 13:23 297 1 gusting 4 17.8
2020-Apr-06 12:23 14.4
2020-Apr-06 11:23 12.2
2020-Apr-06 10:23 12.2
2020-Apr-06 09:23 12.8
2020-Apr-06 08:23 13.3
2020-Apr-06 07:23 13.9
2020-Apr-06 06:23 13.9
2020-Apr-06 05:23 14.4
2020-Apr-06 04:23 15.0
2020-Apr-06 03:23 15.6
2020-Apr-06 02:23 16.1
2020-Apr-06 01:23 047 0 gusting 3 17.2
2020-Apr-06 00:23 046 0 gusting 5 18.3
2020-Apr-05 23:23 092 1 gusting 7 20.0
2020-Apr-05 22:23 101 2 gusting 6 23.3
2020-Apr-05 21:23 093 2 gusting 7 24.4
2020-Apr-05 20:23 096 3 gusting 10 24.4
2020-Apr-05 19:23 098 3 gusting 11 25.6
2020-Apr-05 18:23 098 3 gusting 10 25.0
2020-Apr-05 17:23 159 2 gusting 9 25.0
2020-Apr-05 16:23 088 3 gusting 9 25.0
2020-Apr-05 15:23 092 3 gusting 8 22.8
2020-Apr-05 14:23 087 2 gusting 6 20.0
2020-Apr-05 13:23 077 1 gusting 3 16.7
2020-Apr-05 12:23 056 2 gusting 4 14.4
2020-Apr-05 11:23 059 1 gusting 2 13.9
2020-Apr-05 10:23 069 0 gusting 3 13.9
2020-Apr-05 09:23 13.9
2020-Apr-05 08:23 13.3
2020-Apr-05 07:23 13.3
2020-Apr-05 06:23 13.3
2020-Apr-05 05:23 13.9
2020-Apr-05 04:23 244 0 gusting 3 15.0
2020-Apr-05 03:23 15.0